createdAt,value
2022-08-17T00:01:00.778Z,21.48
2022-08-17T00:03:38.759Z,21.73
2022-08-17T00:06:14.081Z,25.75
2022-08-17T00:08:49.619Z,23.45
2022-08-17T00:11:25.130Z,25.70
2022-08-17T00:13:59.941Z,25.83
2022-08-17T00:16:57.190Z,21.98
2022-08-17T00:19:30.420Z,24.52
2022-08-17T00:22:32.107Z,21.73
2022-08-17T00:24:56.410Z,28.52
2022-08-17T00:27:28.678Z,25.33
2022-08-17T00:30:01.250Z,25.77
2022-08-17T00:33:22.800Z,23.98
2022-08-17T00:35:33.360Z,28.92
2022-08-17T00:38:09.919Z,27.02
2022-08-17T00:40:44.759Z,23.83
2022-08-17T00:43:20.383Z,26.58
2022-08-17T00:45:53.160Z,26.15
2022-08-17T00:48:29.823Z,26.02
2022-08-17T00:51:09.080Z,26.00
2022-08-17T00:53:45.202Z,28.65
2022-08-17T00:56:22.902Z,28.30
2022-08-17T00:58:57.259Z,27.67
2022-08-17T01:01:30.175Z,29.63
2022-08-17T01:04:06.080Z,26.65
2022-08-17T01:06:38.619Z,29.80
2022-08-17T01:09:12.059Z,29.05
2022-08-17T01:11:44.558Z,26.52
2022-08-17T01:14:16.780Z,31.35
2022-08-17T01:16:49.118Z,31.55
2022-08-17T01:19:29.181Z,26.60
2022-08-17T01:22:08.023Z,25.10
2022-08-17T01:24:46.259Z,26.10
2022-08-17T01:27:21.159Z,29.90
2022-08-17T01:29:57.306Z,29.88
2022-08-17T01:32:32.021Z,25.77
2022-08-17T01:35:04.098Z,28.75
2022-08-17T01:37:39.849Z,30.10
2022-08-17T01:40:20.140Z,29.77
2022-08-17T01:42:58.260Z,30.50
2022-08-17T01:45:34.548Z,32.47
2022-08-17T01:48:07.809Z,28.08
2022-08-17T01:50:41.218Z,26.75
2022-08-17T01:53:19.058Z,31.02
2022-08-17T01:56:00.380Z,33.53
2022-08-17T01:58:33.059Z,28.30
2022-08-17T02:01:05.059Z,27.67
2022-08-17T02:03:38.601Z,29.48
2022-08-17T02:06:27.130Z,29.80
2022-08-17T02:09:02.937Z,29.50
2022-08-17T02:11:41.020Z,30.45
2022-08-17T02:14:14.738Z,28.15
2022-08-17T02:16:47.718Z,29.75
2022-08-17T02:19:22.115Z,26.30
2022-08-17T02:21:57.239Z,26.30
2022-08-17T02:25:00.720Z,27.92
2022-08-17T02:28:18.159Z,30.67
2022-08-17T02:31:01.156Z,28.80
2022-08-17T02:33:41.852Z,31.27
2022-08-17T02:36:17.119Z,26.52
2022-08-17T02:38:49.082Z,29.77
2022-08-17T02:41:21.699Z,26.95
2022-08-17T02:43:56.841Z,33.33
2022-08-17T02:46:30.974Z,29.85
2022-08-17T02:49:03.059Z,27.30
2022-08-17T02:51:35.740Z,27.85
2022-08-17T02:54:39.372Z,29.75
2022-08-17T02:57:00.922Z,29.58
2022-08-17T02:59:35.838Z,30.45
2022-08-17T03:02:09.639Z,30.20
2022-08-17T03:04:42.399Z,29.90
2022-08-17T03:07:15.759Z,30.65
2022-08-17T03:09:48.080Z,29.98
2022-08-17T03:12:20.540Z,30.42
2022-08-17T03:14:55.360Z,29.70
2022-08-17T03:17:27.962Z,32.58
2022-08-17T03:20:00.097Z,32.47
2022-08-17T03:22:37.108Z,33.03
2022-08-17T03:25:27.780Z,30.50
2022-08-17T03:28:01.778Z,31.48
2022-08-17T03:30:37.903Z,32.88
2022-08-17T03:33:13.382Z,35.53
2022-08-17T03:35:45.841Z,29.92
2022-08-17T03:38:18.821Z,33.72
2022-08-17T03:40:56.464Z,34.35
2022-08-17T03:43:32.480Z,33.08
2022-08-17T03:46:34.458Z,31.20
2022-08-17T03:49:22.040Z,33.25
2022-08-17T03:52:06.401Z,30.73
2022-08-17T03:54:50.987Z,34.53
2022-08-17T03:57:22.943Z,31.90
2022-08-17T03:59:55.259Z,29.77
2022-08-17T04:02:33.689Z,30.30
2022-08-17T04:05:06.039Z,35.50
2022-08-17T04:07:38.018Z,33.97
2022-08-17T04:10:11.701Z,34.67
2022-08-17T04:12:50.120Z,31.70
2022-08-17T04:15:23.100Z,29.65
2022-08-17T04:17:58.702Z,34.08
2022-08-17T04:20:31.738Z,30.85
2022-08-17T04:23:06.459Z,30.85
2022-08-17T04:25:42.340Z,31.58
2022-08-17T04:28:15.859Z,33.42
2022-08-17T04:30:50.080Z,39.95
2022-08-17T04:33:26.681Z,44.00
2022-08-17T04:36:01.842Z,49.55
2022-08-17T04:38:36.660Z,49.08
2022-08-17T04:41:48.638Z,51.08
2022-08-17T04:44:36.972Z,58.80
2022-08-17T04:47:10.612Z,80.65
2022-08-17T04:49:47.460Z,60.05
2022-08-17T04:52:29.720Z,58.90
2022-08-17T04:55:13.580Z,54.38
2022-08-17T04:57:45.578Z,45.90
2022-08-17T05:00:18.188Z,53.10
2022-08-17T05:02:52.622Z,47.30
2022-08-17T05:05:30.361Z,68.95
2022-08-17T05:08:05.682Z,97.10
2022-08-17T05:10:39.260Z,80.35
2022-08-17T05:13:20.041Z,75.07
2022-08-17T05:15:53.700Z,68.15
2022-08-17T05:18:25.802Z,70.80
2022-08-17T05:21:00.977Z,51.47
2022-08-17T05:23:41.588Z,47.42
2022-08-17T05:26:25.787Z,53.25
2022-08-17T05:29:00.438Z,52.75
2022-08-17T05:31:34.663Z,51.92
2022-08-17T05:34:07.480Z,48.97
2022-08-17T05:36:44.352Z,42.80
2022-08-17T05:39:17.823Z,41.05
2022-08-17T05:41:51.218Z,36.45
2022-08-17T05:44:23.440Z,41.15
2022-08-17T05:46:56.781Z,35.92
2022-08-17T05:49:31.029Z,36.67
2022-08-17T05:52:26.760Z,34.88
2022-08-17T05:55:13.221Z,41.45
2022-08-17T05:58:01.682Z,37.13
2022-08-17T06:00:42.079Z,33.85
2022-08-17T06:03:30.540Z,32.53
2022-08-17T06:06:20.260Z,32.17
2022-08-17T06:09:14.488Z,34.00
2022-08-17T06:11:53.662Z,30.52
2022-08-17T06:14:42.599Z,34.22
2022-08-17T06:17:18.026Z,30.98
2022-08-17T06:19:55.984Z,31.25
2022-08-17T06:22:33.204Z,28.13
2022-08-17T06:25:15.722Z,33.58
2022-08-17T06:27:53.988Z,24.05
2022-08-17T06:30:28.612Z,22.58
2022-08-17T06:33:25.660Z,17.65
2022-08-17T06:36:09.488Z,18.77
2022-08-17T06:38:56.740Z,19.30
2022-08-17T06:41:43.200Z,17.85
2022-08-17T06:44:43.169Z,21.33
2022-08-17T06:47:28.116Z,15.82
2022-08-17T06:50:14.699Z,15.70
2022-08-17T06:52:55.989Z,16.55
2022-08-17T06:55:37.951Z,17.65
2022-08-17T06:58:16.984Z,17.27
2022-08-17T07:00:56.610Z,17.80
2022-08-17T07:03:38.802Z,15.35
2022-08-17T07:06:17.940Z,16.65
2022-08-17T07:08:59.300Z,17.17
2022-08-17T07:11:37.201Z,15.27
2022-08-17T07:14:30.641Z,11.43
2022-08-17T07:17:09.300Z,16.77
2022-08-17T07:19:45.735Z,15.77
2022-08-17T07:22:26.183Z,15.70
2022-08-17T07:25:00.961Z,12.40
2022-08-17T07:27:38.939Z,10.75
2022-08-17T07:30:19.943Z,11.35
2022-08-17T07:32:57.642Z,13.35
2022-08-17T07:35:41.208Z,10.63
2022-08-17T07:38:25.603Z,11.43
2022-08-17T07:41:07.860Z,13.60
2022-08-17T07:43:48.681Z,11.98
2022-08-17T07:46:37.982Z,14.35
2022-08-17T07:49:27.721Z,8.93
2022-08-17T07:52:24.319Z,16.38
2022-08-17T07:54:59.941Z,10.13
2022-08-17T07:57:39.929Z,11.52
2022-08-17T08:00:31.590Z,10.95
2022-08-17T08:03:18.142Z,9.13
2022-08-17T08:05:57.999Z,12.27
2022-08-17T08:08:33.219Z,11.13
2022-08-17T08:11:09.485Z,10.27
2022-08-17T08:13:45.957Z,10.60
2022-08-17T08:16:26.002Z,7.80
2022-08-17T08:19:03.088Z,12.07
2022-08-17T08:21:46.720Z,11.73
2022-08-17T08:24:31.965Z,6.10
2022-08-17T08:27:16.280Z,8.40
2022-08-17T08:29:56.141Z,7.55
2022-08-17T08:32:44.540Z,7.65
2022-08-17T08:35:31.780Z,7.47
2022-08-17T08:38:20.362Z,10.15
2022-08-17T08:41:09.220Z,7.10
2022-08-17T08:44:01.002Z,6.50
2022-08-17T08:46:42.609Z,8.15
2022-08-17T08:50:03.482Z,7.15
2022-08-17T08:52:55.940Z,5.95
2022-08-17T08:55:48.558Z,6.50
2022-08-17T08:58:41.734Z,8.77
2022-08-17T09:01:27.913Z,12.30
2022-08-17T09:04:24.550Z,7.45
2022-08-17T09:07:12.477Z,6.75
2022-08-17T09:10:09.796Z,8.30
2022-08-17T09:12:54.443Z,7.38
2022-08-17T09:15:32.456Z,6.82
2022-08-17T09:19:01.747Z,9.82
2022-08-17T09:21:11.673Z,7.35
2022-08-17T09:23:49.874Z,6.10
2022-08-17T09:26:31.219Z,7.28
2022-08-17T09:29:08.974Z,6.57
2022-08-17T09:31:49.133Z,6.43
2022-08-17T09:34:33.280Z,9.02
2022-08-17T09:37:22.284Z,6.05
2022-08-17T09:40:07.698Z,6.22
2022-08-17T09:42:48.842Z,5.95
2022-08-17T09:45:33.243Z,3.80
2022-08-17T09:48:09.364Z,7.10
2022-08-17T09:51:03.663Z,6.38
2022-08-17T09:53:39.761Z,7.70
2022-08-17T09:56:42.448Z,7.53
2022-08-17T09:59:45.063Z,8.85
2022-08-17T10:02:46.243Z,7.10
2022-08-17T10:05:25.049Z,6.25
2022-08-17T10:08:09.541Z,6.22
2022-08-17T10:10:56.870Z,6.82
2022-08-17T10:13:38.924Z,10.10
2022-08-17T10:16:23.848Z,5.50
2022-08-17T10:19:08.103Z,6.32
2022-08-17T10:22:00.646Z,6.82
2022-08-17T10:25:21.149Z,5.47
2022-08-17T10:27:49.052Z,5.65
2022-08-17T10:30:25.390Z,6.25
2022-08-17T10:33:03.886Z,7.90
2022-08-17T10:35:45.487Z,6.78
2022-08-17T10:38:46.390Z,5.72
2022-08-17T10:41:27.366Z,4.55
2022-08-17T10:44:38.730Z,5.40
2022-08-17T10:47:09.746Z,6.85
2022-08-17T10:49:48.155Z,7.45
2022-08-17T10:52:55.328Z,7.28
2022-08-17T10:55:28.169Z,6.30
2022-08-17T10:58:24.743Z,5.28
2022-08-17T11:01:09.319Z,5.97
2022-08-17T11:03:55.129Z,7.07
2022-08-17T11:06:48.967Z,7.18
2022-08-17T11:09:36.428Z,8.65
2022-08-17T11:12:22.728Z,5.22
2022-08-17T11:15:17.647Z,5.30
2022-08-17T11:18:16.131Z,4.28
2022-08-17T11:21:35.069Z,3.97
2022-08-17T11:24:31.724Z,4.45
2022-08-17T11:27:22.835Z,7.25
2022-08-17T11:30:01.834Z,4.90
2022-08-17T11:32:47.560Z,4.88
2022-08-17T11:35:41.937Z,7.15
2022-08-17T11:38:37.914Z,5.07
2022-08-17T11:41:24.300Z,7.85
2022-08-17T11:44:20.411Z,6.50
2022-08-17T11:47:25.211Z,7.00
2022-08-17T11:50:46.031Z,7.80
2022-08-17T11:53:47.596Z,7.28
2022-08-17T11:56:42.198Z,6.72
2022-08-17T11:59:44.136Z,8.63
2022-08-17T12:02:35.444Z,6.78
2022-08-17T12:05:28.516Z,5.95
2022-08-17T12:08:18.076Z,5.05
2022-08-17T12:11:03.556Z,6.63
2022-08-17T12:13:47.901Z,4.97
2022-08-17T12:16:21.365Z,6.63
2022-08-17T12:18:59.665Z,7.00
2022-08-17T12:21:46.525Z,5.55
2022-08-17T12:24:31.766Z,7.55
2022-08-17T12:27:09.669Z,6.20
2022-08-17T12:29:47.486Z,5.10
2022-08-17T12:32:24.025Z,6.22
2022-08-17T12:34:56.847Z,6.38
2022-08-17T12:37:32.485Z,6.22
2022-08-17T12:40:09.182Z,8.38
2022-08-17T12:42:42.883Z,4.65
2022-08-17T12:45:32.725Z,6.07
2022-08-17T12:48:07.956Z,5.88
2022-08-17T12:50:43.914Z,6.07
2022-08-17T12:53:18.623Z,6.57
2022-08-17T12:55:52.420Z,8.05
2022-08-17T12:58:28.655Z,5.95
2022-08-17T13:01:08.953Z,7.38
2022-08-17T13:03:45.796Z,7.70
2022-08-17T13:06:31.807Z,6.75
2022-08-17T13:09:13.241Z,7.18
2022-08-17T13:11:54.162Z,6.68
2022-08-17T13:14:26.281Z,4.80
2022-08-17T13:17:11.136Z,4.30
2022-08-17T13:19:53.099Z,6.00
2022-08-17T13:22:27.363Z,4.82
2022-08-17T13:25:11.420Z,6.22
2022-08-17T13:27:46.441Z,6.30
2022-08-17T13:30:28.385Z,6.63
2022-08-17T13:33:05.039Z,4.90
2022-08-17T13:35:47.075Z,9.68
2022-08-17T13:38:41.361Z,6.70
2022-08-17T13:41:34.810Z,6.68
2022-08-17T13:44:38.158Z,7.75
2022-08-17T13:47:22.358Z,6.55
2022-08-17T13:49:58.438Z,6.32
2022-08-17T13:52:41.139Z,6.75
2022-08-17T13:55:23.676Z,7.57
2022-08-17T13:58:06.686Z,5.93
2022-08-17T14:00:41.139Z,5.63
2022-08-17T14:03:13.098Z,6.15
2022-08-17T14:05:50.435Z,6.75
2022-08-17T14:08:24.309Z,7.18
2022-08-17T14:11:07.813Z,7.97
2022-08-17T14:13:41.909Z,4.18
2022-08-17T14:16:14.086Z,5.97
2022-08-17T14:18:56.765Z,6.65
2022-08-17T14:21:35.768Z,8.02
2022-08-17T14:24:16.327Z,6.03
2022-08-17T14:26:48.575Z,8.90
2022-08-17T14:29:20.560Z,8.20
2022-08-17T14:31:54.738Z,6.03
2022-08-17T14:34:28.136Z,8.43
2022-08-17T14:37:03.130Z,7.80
2022-08-17T14:39:35.323Z,6.22
2022-08-17T14:42:07.989Z,5.40
2022-08-17T14:44:40.006Z,7.55
2022-08-17T14:47:16.050Z,5.90
2022-08-17T14:49:48.586Z,5.18
2022-08-17T14:52:24.589Z,7.80
2022-08-17T14:54:56.731Z,6.93
2022-08-17T14:57:34.175Z,5.63
2022-08-17T15:00:10.488Z,5.22
2022-08-17T15:02:54.276Z,5.80
2022-08-17T15:05:29.579Z,5.53
2022-08-17T15:08:16.876Z,5.55
2022-08-17T15:10:53.347Z,5.45
2022-08-17T15:13:29.222Z,6.20
2022-08-17T15:16:04.282Z,7.38
2022-08-17T15:18:36.688Z,8.95
2022-08-17T15:21:10.855Z,5.95
2022-08-17T15:23:45.817Z,6.60
2022-08-17T15:26:20.643Z,7.20
2022-08-17T15:28:56.899Z,7.88
2022-08-17T15:31:32.265Z,5.32
2022-08-17T15:34:05.597Z,7.32
2022-08-17T15:36:43.877Z,8.07
2022-08-17T15:39:26.709Z,7.30
2022-08-17T15:41:59.287Z,8.48
2022-08-17T15:44:32.753Z,7.07
2022-08-17T15:47:07.181Z,7.85
2022-08-17T15:49:42.542Z,8.10
2022-08-17T15:52:20.163Z,5.97
2022-08-17T15:55:00.165Z,6.93
2022-08-17T15:57:32.080Z,6.57
2022-08-17T16:00:04.843Z,6.57
2022-08-17T16:03:44.370Z,7.45
2022-08-17T16:05:32.034Z,5.78
2022-08-17T16:08:04.821Z,8.80
2022-08-17T16:10:40.542Z,7.93
2022-08-17T16:13:17.346Z,8.55
2022-08-17T16:15:57.533Z,9.00
2022-08-17T16:18:32.478Z,6.43
2022-08-17T16:21:22.951Z,6.65
2022-08-17T16:23:57.885Z,9.32
2022-08-17T16:26:34.065Z,7.93
2022-08-17T16:29:13.564Z,6.65
2022-08-17T16:31:46.095Z,6.22
2022-08-17T16:34:21.674Z,7.97
2022-08-17T16:36:56.533Z,9.65
2022-08-17T16:39:33.577Z,14.52
2022-08-17T16:42:09.734Z,6.60
2022-08-17T16:44:42.176Z,7.03
2022-08-17T16:47:32.733Z,9.23
2022-08-17T16:50:20.554Z,6.70
2022-08-17T16:53:03.435Z,9.23
2022-08-17T16:55:53.714Z,8.63
2022-08-17T16:58:46.273Z,6.32
2022-08-17T17:02:01.757Z,9.07
2022-08-17T17:04:58.492Z,7.28
2022-08-17T17:08:01.088Z,10.40
2022-08-17T17:10:39.074Z,9.32
2022-08-17T17:13:17.035Z,10.10
2022-08-17T17:15:57.756Z,11.98
2022-08-17T17:18:40.592Z,11.38
2022-08-17T17:21:17.373Z,11.55
2022-08-17T17:23:58.194Z,9.50
2022-08-17T17:26:47.255Z,6.63
2022-08-17T17:30:29.376Z,9.68
2022-08-17T17:33:12.314Z,10.13
2022-08-17T17:35:50.294Z,7.47
2022-08-17T17:38:29.172Z,7.15
2022-08-17T17:41:09.153Z,7.38
2022-08-17T17:43:41.936Z,9.57
2022-08-17T17:46:28.063Z,9.35
2022-08-17T17:49:07.184Z,9.00
2022-08-17T17:52:09.361Z,9.10
2022-08-17T17:55:05.754Z,11.63
2022-08-17T17:57:56.203Z,10.18
2022-08-17T18:00:36.534Z,15.02
2022-08-17T18:03:38.623Z,11.73
2022-08-17T18:06:24.056Z,9.27
2022-08-17T18:09:06.335Z,13.45
2022-08-17T18:11:54.872Z,12.95
2022-08-17T18:14:46.573Z,8.88
2022-08-17T18:17:18.877Z,11.38
2022-08-17T18:19:50.792Z,11.15
2022-08-17T18:22:28.097Z,16.08
2022-08-17T18:25:00.312Z,13.18
2022-08-17T18:27:41.455Z,12.00
2022-08-17T18:30:30.636Z,11.15
2022-08-17T18:33:24.873Z,12.48
2022-08-17T18:35:58.902Z,17.30
2022-08-17T18:38:38.875Z,10.52
2022-08-17T18:41:24.695Z,13.20
2022-08-17T18:44:05.973Z,12.95
2022-08-17T18:46:40.496Z,11.90
2022-08-17T18:49:31.294Z,10.85
2022-08-17T18:52:14.972Z,9.80
2022-08-17T18:55:09.086Z,10.55
2022-08-17T18:57:44.966Z,18.33
2022-08-17T19:00:39.757Z,11.93
2022-08-17T19:03:28.735Z,14.02
2022-08-17T19:06:20.875Z,12.60
2022-08-17T19:08:53.110Z,16.08
2022-08-17T19:11:32.874Z,15.05
2022-08-17T19:14:21.114Z,13.95
2022-08-17T19:16:59.413Z,12.45
2022-08-17T19:19:37.055Z,16.00
2022-08-17T19:22:29.057Z,12.70
2022-08-17T19:25:16.054Z,13.52
2022-08-17T19:27:58.483Z,13.85
2022-08-17T19:30:31.115Z,12.15
2022-08-17T19:33:05.474Z,10.75
2022-08-17T19:35:52.614Z,11.55
2022-08-17T19:38:37.675Z,12.55
2022-08-17T19:41:16.715Z,11.40
2022-08-17T19:44:16.403Z,13.98
2022-08-17T19:47:00.681Z,11.30
2022-08-17T19:49:47.077Z,11.70
2022-08-17T19:52:40.833Z,12.35
2022-08-17T19:55:22.694Z,10.23
2022-08-17T19:58:07.738Z,13.70
2022-08-17T20:00:52.517Z,13.43
2022-08-17T20:03:29.773Z,11.93
2022-08-17T20:06:13.471Z,11.32
2022-08-17T20:08:57.561Z,15.68
2022-08-17T20:11:37.614Z,12.27
2022-08-17T20:14:15.254Z,12.93
2022-08-17T20:16:50.318Z,11.40
2022-08-17T20:19:31.402Z,12.35
2022-08-17T20:22:07.573Z,12.13
2022-08-17T20:24:47.374Z,11.55
2022-08-17T20:27:27.994Z,13.93
2022-08-17T20:30:13.033Z,14.18
2022-08-17T20:32:59.394Z,14.48
2022-08-17T20:35:35.198Z,13.73
2022-08-17T20:38:13.460Z,16.73
2022-08-17T20:41:13.453Z,12.50
2022-08-17T20:43:52.753Z,11.55
2022-08-17T20:46:44.855Z,15.77
2022-08-17T20:49:27.573Z,14.23
2022-08-17T20:52:05.294Z,14.52
2022-08-17T20:54:51.222Z,14.43
2022-08-17T20:57:49.376Z,13.27
2022-08-17T21:00:46.914Z,11.52
2022-08-17T21:03:51.913Z,14.57
2022-08-17T21:06:29.254Z,14.82
2022-08-17T21:09:22.513Z,16.58
2022-08-17T21:12:05.623Z,12.45
2022-08-17T21:14:58.998Z,14.88
2022-08-17T21:17:53.537Z,14.23
2022-08-17T21:20:42.895Z,17.38
2022-08-17T21:23:40.754Z,12.73
2022-08-17T21:26:30.365Z,15.23
2022-08-17T21:29:30.418Z,16.70
2022-08-17T21:32:24.705Z,11.90
2022-08-17T21:35:28.590Z,13.30
2022-08-17T21:38:06.973Z,13.52
2022-08-17T21:40:47.334Z,12.45
2022-08-17T21:43:29.833Z,13.38
2022-08-17T21:46:07.985Z,14.65
2022-08-17T21:48:48.184Z,15.15
2022-08-17T21:51:24.113Z,12.18
2022-08-17T21:53:59.675Z,13.05
2022-08-17T21:56:37.906Z,13.70
2022-08-17T21:59:19.698Z,12.82
2022-08-17T22:01:58.314Z,12.63
2022-08-17T22:04:33.936Z,17.65
2022-08-17T22:07:09.075Z,15.77
2022-08-17T22:09:46.615Z,13.55
2022-08-17T22:12:24.495Z,13.10
2022-08-17T22:15:04.579Z,17.40
2022-08-17T22:17:41.737Z,16.65
2022-08-17T22:20:18.302Z,12.90
2022-08-17T22:23:32.674Z,14.98
2022-08-17T22:26:09.567Z,12.45
2022-08-17T22:28:52.779Z,15.90
2022-08-17T22:31:27.634Z,16.30
2022-08-17T22:34:16.118Z,11.95
2022-08-17T22:36:48.323Z,15.38
2022-08-17T22:39:45.711Z,13.23
2022-08-17T22:42:18.696Z,16.48
2022-08-17T22:44:55.435Z,14.27
2022-08-17T22:47:39.802Z,14.48
2022-08-17T22:50:24.515Z,13.73
2022-08-17T22:53:14.634Z,15.57
2022-08-17T22:56:08.297Z,16.40
2022-08-17T22:59:04.655Z,14.25
2022-08-17T23:01:40.935Z,14.02
2022-08-17T23:04:16.616Z,15.90
2022-08-17T23:06:49.035Z,13.98
2022-08-17T23:09:21.198Z,13.45
2022-08-17T23:11:58.956Z,15.95
2022-08-17T23:14:32.717Z,14.45
2022-08-17T23:17:08.414Z,12.95
2022-08-17T23:19:58.935Z,14.13
2022-08-17T23:22:32.584Z,14.57
2022-08-17T23:25:06.254Z,14.77
2022-08-17T23:27:38.598Z,13.55
2022-08-17T23:30:13.176Z,16.38
2022-08-17T23:32:53.704Z,16.15
2022-08-17T23:35:39.983Z,18.50
2022-08-17T23:38:16.217Z,16.60
2022-08-17T23:40:48.536Z,14.13
2022-08-17T23:43:25.228Z,14.38
2022-08-17T23:46:04.114Z,18.00
2022-08-17T23:48:42.595Z,14.10
2022-08-17T23:51:19.215Z,16.75
2022-08-17T23:53:54.496Z,13.82
2022-08-17T23:56:27.357Z,17.48
2022-08-17T23:59:00.435Z,15.73
